Time;durP1;ratioP1;P1;durP2;ratioP2;P2;SDS_P1;SDS_P2;PMS_P1;PMS_P2;Temp;Humidity;BMP_temperature;BMP_pressure;BME280_temperature;BME280_humidity;BME280_pressure;Samples;Min_cycle;Max_cycle;Signal;HPM_P1;HPM_P2
2022/08/31 00:06:05;;;;;;;5.05;3.42;;;20.80;85.20;;;;;;5031850;28;20071;-79
2022/08/31 00:08:32;;;;;;;5.65;2.75;;;20.80;85.00;;;;;;5035521;28;20041;-79
2022/08/31 00:10:58;;;;;;;7.10;2.90;;;20.70;85.10;;;;;;5034719;28;20032;-80
2022/08/31 00:13:26;;;;;;;9.27;3.90;;;20.60;85.30;;;;;;5027297;28;20033;-80
2022/08/31 00:15:55;;;;;;;4.75;3.53;;;20.70;85.50;;;;;;5027807;28;20025;-80
2022/08/31 00:18:22;;;;;;;4.38;2.90;;;20.70;85.60;;;;;;5033649;28;20037;-79
2022/08/31 00:20:48;;;;;;;4.97;3.33;;;20.70;85.40;;;;;;5031020;28;20018;-78
2022/08/31 00:23:16;;;;;;;5.45;2.90;;;20.60;85.40;;;;;;5030335;28;20394;-80
2022/08/31 00:25:44;;;;;;;6.88;3.70;;;20.60;85.30;;;;;;5035345;28;20116;-79
2022/08/31 00:28:12;;;;;;;4.05;2.83;;;20.60;85.40;;;;;;5039567;28;20093;-79
2022/08/31 00:30:39;;;;;;;16.63;3.33;;;20.40;86.40;;;;;;5055255;28;20394;-79
2022/08/31 00:33:06;;;;;;;4.28;3.17;;;20.40;87.20;;;;;;5035057;28;20030;-80
2022/08/31 00:35:35;;;;;;;3.97;3.25;;;20.30;88.70;;;;;;5036947;28;20750;-80
2022/08/31 00:38:02;;;;;;;6.65;3.25;;;20.30;90.50;;;;;;5047044;28;20029;-80
2022/08/31 00:40:28;;;;;;;5.03;3.25;;;20.10;91.10;;;;;;5039534;28;20679;-79
2022/08/31 00:42:55;;;;;;;9.70;3.83;;;20.10;91.60;;;;;;5027148;28;20041;-80
2022/08/31 00:45:22;;;;;;;5.47;3.65;;;20.00;92.40;;;;;;5034005;28;20030;-79
2022/08/31 00:47:48;;;;;;;8.02;3.90;;;20.00;92.10;;;;;;5041480;28;20083;-80
2022/08/31 00:50:16;;;;;;;8.88;4.68;;;20.00;92.60;;;;;;5037385;28;20041;-80
2022/08/31 00:52:47;;;;;;;6.30;3.63;;;20.10;93.20;;;;;;5035405;28;20037;-80
2022/08/31 00:55:16;;;;;;;6.93;4.00;;;20.00;93.10;;;;;;5054877;28;20055;-80
2022/08/31 00:57:46;;;;;;;7.47;3.15;;;20.00;94.40;;;;;;5035808;28;20071;-79
2022/08/31 01:00:16;;;;;;;6.78;3.50;;;19.90;93.80;;;;;;5034384;28;20048;-80
2022/08/31 01:02:43;;;;;;;4.97;3.72;;;19.80;94.40;;;;;;5037797;28;20038;-79
2022/08/31 01:05:10;;;;;;;3.92;3.50;;;19.80;93.70;;;;;;5038321;28;20036;-80
2022/08/31 01:07:37;;;;;;;6.45;3.53;;;19.80;94.20;;;;;;5034140;28;20026;-79
2022/08/31 01:10:03;;;;;;;4.93;3.55;;;19.80;94.60;;;;;;5040568;28;20026;-80
2022/08/31 01:12:29;;;;;;;5.57;3.63;;;19.80;94.90;;;;;;5033362;28;20113;-79
2022/08/31 01:14:56;;;;;;;5.35;4.03;;;19.80;94.90;;;;;;5034721;28;20053;-79
2022/08/31 01:17:22;;;;;;;6.75;3.88;;;19.70;95.30;;;;;;5029416;28;20030;-80
2022/08/31 01:19:57;;;;;;;7.22;4.07;;;19.80;94.90;;;;;;5027920;28;20295;-80
2022/08/31 01:22:35;;;;;;;5.30;4.07;;;19.70;96.30;;;;;;5034585;28;20096;-79
2022/08/31 01:25:02;;;;;;;8.10;4.78;;;19.40;94.90;;;;;;5027420;28;20045;-79
2022/08/31 01:27:32;;;;;;;11.60;3.97;;;19.20;95.20;;;;;;5034430;28;20025;-80
2022/08/31 01:29:59;;;;;;;9.10;4.28;;;19.30;95.60;;;;;;5032545;28;20064;-79
2022/08/31 01:32:25;;;;;;;7.60;4.18;;;19.40;95.90;;;;;;5037024;28;20060;-81
2022/08/31 01:34:51;;;;;;;7.57;4.28;;;19.40;96.30;;;;;;5036312;28;20449;-81
2022/08/31 01:37:17;;;;;;;8.10;4.40;;;19.30;96.70;;;;;;5042599;28;20029;-79
2022/08/31 01:39:42;;;;;;;11.85;4.65;;;19.30;96.80;;;;;;5036870;28;20026;-80
2022/08/31 01:42:08;;;;;;;5.30;4.03;;;19.30;96.70;;;;;;5029418;28;20374;-79
2022/08/31 01:44:34;;;;;;;6.15;4.05;;;19.30;97.20;;;;;;5036240;28;20029;-80
2022/08/31 01:47:00;;;;;;;7.53;4.20;;;19.20;98.00;;;;;;5040197;28;20487;-77
2022/08/31 01:49:27;;;;;;;15.25;7.22;;;19.20;97.80;;;;;;5038704;28;20022;-80
2022/08/31 01:51:53;;;;;;;12.60;5.10;;;19.20;98.00;;;;;;5019634;28;20034;-78
2022/08/31 01:54:21;;;;;;;8.35;4.40;;;19.20;98.00;;;;;;5028133;28;20512;-81
2022/08/31 01:56:48;;;;;;;7.40;5.00;;;19.00;99.00;;;;;;5043070;28;20475;-79
2022/08/31 01:59:17;;;;;;;7.13;4.70;;;19.00;98.40;;;;;;5028610;28;20026;-81
2022/08/31 02:01:45;;;;;;;7.90;4.50;;;19.00;99.20;;;;;;5040739;28;20026;-80
2022/08/31 02:04:14;;;;;;;7.13;4.50;;;19.00;98.90;;;;;;5026116;28;20147;-79
2022/08/31 02:06:45;;;;;;;7.40;4.88;;;18.80;99.90;;;;;;5033773;28;20029;-80
2022/08/31 02:09:12;;;;;;;9.40;4.78;;;18.80;99.90;;;;;;5036614;28;20057;-79
2022/08/31 02:11:38;;;;;;;7.88;4.18;;;18.80;99.90;;;;;;5049002;28;20057;-80
2022/08/31 02:14:04;;;;;;;11.75;4.78;;;18.90;99.20;;;;;;5042490;28;20044;-79
2022/08/31 02:16:31;;;;;;;11.15;5.07;;;18.90;99.30;;;;;;5056180;28;20032;-79
2022/08/31 02:18:56;;;;;;;11.10;5.00;;;19.00;99.20;;;;;;5052613;28;20030;-79
2022/08/31 02:21:22;;;;;;;7.75;4.55;;;18.80;99.50;;;;;;5035552;28;20540;-80
2022/08/31 02:23:48;;;;;;;6.78;4.43;;;18.60;99.90;;;;;;5041875;28;20017;-79
2022/08/31 02:26:14;;;;;;;7.45;4.55;;;18.70;99.70;;;;;;5035576;28;20047;-79
2022/08/31 02:28:41;;;;;;;6.78;4.82;;;18.80;99.40;;;;;;5033724;28;20054;-78
2022/08/31 02:31:07;;;;;;;6.57;4.30;;;18.90;99.40;;;;;;5033031;28;20062;-80
2022/08/31 02:33:33;;;;;;;9.30;5.00;;;18.80;99.50;;;;;;5033566;28;20109;-78
2022/08/31 02:35:59;;;;;;;13.95;4.88;;;18.80;99.80;;;;;;5040875;28;20080;-81
2022/08/31 02:38:26;;;;;;;9.13;5.10;;;18.70;99.90;;;;;;5035673;28;20018;-81
2022/08/31 02:40:52;;;;;;;5.57;4.32;;;18.80;99.90;;;;;;5049669;28;20033;-79
2022/08/31 02:43:18;;;;;;;9.55;5.00;;;18.80;99.80;;;;;;5037153;28;20037;-80
2022/08/31 02:45:44;;;;;;;9.88;5.22;;;18.70;99.90;;;;;;5048533;28;20041;-81
2022/08/31 02:48:11;;;;;;;10.18;4.43;;;18.70;99.90;;;;;;5035845;28;20034;-81
2022/08/31 02:50:42;;;;;;;7.07;4.55;;;18.70;99.90;;;;;;5029568;28;20547;-82
2022/08/31 02:53:10;;;;;;;7.32;5.47;;;18.60;99.90;;;;;;5033615;28;20344;-82
2022/08/31 02:55:36;;;;;;;8.98;5.07;;;18.40;99.90;;;;;;5027341;28;20035;-82
2022/08/31 02:58:03;;;;;;;10.23;5.00;;;18.40;99.90;;;;;;5037016;28;20038;-82
2022/08/31 03:00:29;;;;;;;8.55;5.00;;;18.30;99.90;;;;;;5035287;28;20077;-82
2022/08/31 03:02:55;;;;;;;10.93;5.38;;;18.30;99.90;;;;;;5046492;28;20100;-82
2022/08/31 03:05:21;;;;;;;9.70;5.78;;;18.20;99.90;;;;;;5048698;28;20068;-83
2022/08/31 03:07:51;;;;;;;7.40;4.68;;;18.10;99.90;;;;;;5036975;28;20466;-83
2022/08/31 03:10:19;;;;;;;7.57;4.90;;;18.00;99.90;;;;;;5040836;28;20637;-83
2022/08/31 03:12:47;;;;;;;19.67;6.63;;;18.00;99.90;;;;;;5023197;28;20025;-83
2022/08/31 03:15:13;;;;;;;9.32;5.22;;;18.00;99.90;;;;;;5038891;28;20029;-83
2022/08/31 03:17:39;;;;;;;8.55;4.88;;;18.10;99.90;;;;;;5031805;28;20458;-82
2022/08/31 03:20:06;;;;;;;7.97;5.05;;;18.10;99.90;;;;;;5038536;28;20030;-82
2022/08/31 03:22:33;;;;;;;6.68;4.97;;;18.00;99.90;;;;;;5040497;28;20105;-83
2022/08/31 03:24:59;;;;;;;7.93;4.95;;;18.10;99.90;;;;;;5030268;28;20030;-83
2022/08/31 03:27:28;;;;;;;11.77;5.63;;;18.20;99.90;;;;;;5054493;28;20494;-83
2022/08/31 03:29:53;;;;;;;7.43;5.60;;;18.30;99.90;;;;;;5045396;28;20060;-83
2022/08/31 03:32:19;;;;;;;8.73;4.93;;;18.30;99.90;;;;;;5040722;28;20030;-83
2022/08/31 03:34:46;;;;;;;9.23;5.30;;;18.30;99.90;;;;;;5035811;28;20021;-83
2022/08/31 03:37:12;;;;;;;6.32;5.25;;;18.30;99.90;;;;;;5042242;28;20508;-83
2022/08/31 03:39:38;;;;;;;5.97;4.45;;;18.20;99.90;;;;;;5023386;28;20026;-83
2022/08/31 03:42:05;;;;;;;12.65;5.95;;;18.40;99.90;;;;;;5035032;28;20021;-83
2022/08/31 03:44:32;;;;;;;9.10;5.40;;;18.30;99.90;;;;;;5030449;28;20426;-83
2022/08/31 03:46:59;;;;;;;11.85;5.55;;;18.30;99.90;;;;;;5039528;28;20036;-84
2022/08/31 03:49:25;;;;;;;9.25;5.82;;;18.30;99.90;;;;;;5042503;28;20106;-84
2022/08/31 03:51:51;;;;;;;7.97;5.38;;;18.30;99.90;;;;;;5033067;28;20022;-84
2022/08/31 03:54:20;;;;;;;9.25;5.15;;;18.30;99.90;;;;;;5027776;28;20060;-84
2022/08/31 03:56:46;;;;;;;10.05;5.82;;;18.30;99.90;;;;;;5047944;28;20063;-84
2022/08/31 03:59:12;;;;;;;7.75;4.88;;;18.30;99.90;;;;;;5037586;28;20041;-84
2022/08/31 04:01:38;;;;;;;8.82;5.22;;;18.30;99.90;;;;;;5043269;28;20390;-84
2022/08/31 04:04:04;;;;;;;9.23;5.53;;;18.30;99.90;;;;;;5050820;28;20386;-84
2022/08/31 04:06:30;;;;;;;8.55;5.53;;;18.20;99.90;;;;;;5047292;28;20030;-84
2022/08/31 04:08:56;;;;;;;7.60;5.30;;;18.20;99.90;;;;;;5030159;28;20026;-84
2022/08/31 04:11:23;;;;;;;8.88;5.60;;;18.20;99.90;;;;;;5035423;28;20116;-84
2022/08/31 04:13:49;;;;;;;9.45;5.40;;;18.30;99.90;;;;;;5041661;28;20032;-84
2022/08/31 04:16:18;;;;;;;6.18;5.57;;;18.30;99.90;;;;;;5036001;28;20439;-83
2022/08/31 04:18:46;;;;;;;10.27;6.47;;;18.30;99.90;;;;;;5033964;28;20056;-83
2022/08/31 04:21:14;;;;;;;8.05;5.53;;;18.10;99.90;;;;;;5036112;28;20026;-84
2022/08/31 04:23:40;;;;;;;12.52;5.63;;;18.10;99.90;;;;;;5047200;28;20066;-84
2022/08/31 04:26:16;;;;;;;11.90;5.60;;;18.30;99.90;;;;;;5057069;28;20036;-84
2022/08/31 04:28:42;;;;;;;6.53;5.82;;;18.30;99.90;;;;;;5053007;28;20036;-84
2022/08/31 04:31:08;;;;;;;8.63;5.65;;;18.30;99.90;;;;;;5057271;28;20104;-83
2022/08/31 04:33:38;;;;;;;7.10;5.07;;;18.30;99.90;;;;;;5057428;28;20032;-84
2022/08/31 04:36:09;;;;;;;7.70;5.47;;;18.30;99.90;;;;;;5049869;28;20022;-83
2022/08/31 04:38:36;;;;;;;7.63;6.18;;;18.20;99.90;;;;;;5024522;28;20032;-83
2022/08/31 04:41:08;;;;;;;6.57;5.90;;;18.10;99.90;;;;;;5036370;28;20039;-83
2022/08/31 04:43:35;;;;;;;6.78;5.43;;;18.00;99.90;;;;;;5035740;28;20024;-83
2022/08/31 04:46:05;;;;;;;7.75;5.65;;;17.80;99.90;;;;;;5029904;28;20478;-83
2022/08/31 04:48:32;;;;;;;9.38;6.05;;;17.90;99.90;;;;;;5033244;28;20507;-83
2022/08/31 04:51:03;;;;;;;11.48;6.00;;;17.90;99.90;;;;;;5031653;28;20030;-83
2022/08/31 04:53:28;;;;;;;8.70;6.00;;;18.00;99.90;;;;;;5031050;28;20099;-84
2022/08/31 04:55:54;;;;;;;8.45;5.68;;;18.00;99.90;;;;;;5037184;28;20522;-84
2022/08/31 04:58:22;;;;;;;13.77;6.40;;;18.10;99.90;;;;;;5026932;28;20120;-83
2022/08/31 05:00:50;;;;;;;7.45;5.75;;;18.10;99.90;;;;;;5034819;28;20033;-82
2022/08/31 05:03:17;;;;;;;6.78;5.88;;;17.90;99.90;;;;;;5045871;28;20025;-84
2022/08/31 05:05:45;;;;;;;7.35;6.43;;;18.00;99.90;;;;;;5041001;28;20033;-83
2022/08/31 05:08:11;;;;;;;12.95;6.68;;;17.90;99.90;;;;;;5041069;28;20041;-82
2022/08/31 05:10:39;;;;;;;11.00;6.65;;;17.90;99.90;;;;;;5039821;28;20037;-83
2022/08/31 05:13:05;;;;;;;9.18;5.43;;;17.80;99.90;;;;;;5043721;28;20032;-82
2022/08/31 05:15:32;;;;;;;11.32;6.30;;;17.70;99.90;;;;;;5030371;28;20083;-82
2022/08/31 05:17:58;;;;;;;9.88;6.95;;;17.80;99.90;;;;;;5043638;28;20598;-82
2022/08/31 05:20:25;;;;;;;11.88;7.15;;;17.80;99.90;;;;;;5043460;28;20021;-82
2022/08/31 05:22:51;;;;;;;8.75;6.30;;;17.90;99.90;;;;;;5032681;28;20044;-82
2022/08/31 05:25:16;;;;;;;8.82;6.63;;;17.90;99.90;;;;;;5042363;28;20494;-82
2022/08/31 05:27:42;;;;;;;8.65;5.88;;;17.90;99.90;;;;;;5046840;28;20037;-82
2022/08/31 05:30:09;;;;;;;9.55;5.75;;;17.80;99.90;;;;;;5026192;28;20489;-83
2022/08/31 05:32:34;;;;;;;9.88;5.63;;;17.80;99.90;;;;;;5046200;28;20036;-83
2022/08/31 05:35:00;;;;;;;9.88;6.32;;;17.90;99.90;;;;;;5042182;28;20033;-82
2022/08/31 05:37:26;;;;;;;6.10;5.10;;;17.90;99.90;;;;;;5033241;28;20022;-83
2022/08/31 05:39:53;;;;;;;8.23;6.10;;;17.90;99.90;;;;;;5034477;28;20029;-82
2022/08/31 05:42:19;;;;;;;9.20;6.07;;;18.00;99.90;;;;;;5038603;28;20025;-82
2022/08/31 05:44:45;;;;;;;11.60;6.95;;;17.80;99.90;;;;;;5046060;28;20094;-82
2022/08/31 05:47:11;;;;;;;8.05;5.63;;;17.90;99.90;;;;;;5049786;28;20021;-82
2022/08/31 05:49:38;;;;;;;7.90;5.72;;;17.90;99.90;;;;;;5033163;28;20036;-82
2022/08/31 05:52:04;;;;;;;10.13;6.18;;;17.90;99.90;;;;;;5043871;28;20025;-83
2022/08/31 05:54:34;;;;;;;10.77;5.82;;;17.80;99.90;;;;;;5046613;28;20030;-80
2022/08/31 05:57:01;;;;;;;7.60;6.55;;;17.80;99.90;;;;;;5034456;28;20033;-82
2022/08/31 05:59:27;;;;;;;8.05;6.07;;;17.90;99.90;;;;;;5029169;28;20445;-83
2022/08/31 06:01:54;;;;;;;11.20;5.45;;;17.90;99.90;;;;;;5035017;28;20025;-82
2022/08/31 06:04:20;;;;;;;7.00;5.60;;;17.90;99.90;;;;;;5031806;28;20575;-82
2022/08/31 06:06:46;;;;;;;10.98;5.70;;;17.90;99.90;;;;;;5044464;28;20034;-81
2022/08/31 06:09:12;;;;;;;6.95;5.45;;;18.00;99.90;;;;;;5036103;28;20034;-81
2022/08/31 06:11:40;;;;;;;7.95;5.30;;;18.00;99.90;;;;;;5044534;28;20026;-81
2022/08/31 06:14:08;;;;;;;9.10;5.90;;;18.00;99.90;;;;;;5032366;28;20029;-82
2022/08/31 06:16:35;;;;;;;11.10;6.00;;;18.00;99.90;;;;;;5036938;28;20029;-81
2022/08/31 06:19:05;;;;;;;7.78;6.18;;;18.10;99.90;;;;;;5030690;28;20025;-81
2022/08/31 06:21:38;;;;;;;15.45;6.25;;;18.20;99.90;;;;;;5041828;28;20029;-80
2022/08/31 06:24:05;;;;;;;6.90;5.68;;;18.00;99.90;;;;;;5030582;28;20040;-82
2022/08/31 06:26:34;;;;;;;7.95;6.47;;;18.20;99.90;;;;;;5037674;28;20034;-82
2022/08/31 06:29:02;;;;;;;9.07;5.85;;;18.10;99.90;;;;;;5037014;28;20116;-82
2022/08/31 06:31:32;;;;;;;7.05;6.10;;;18.30;99.90;;;;;;5028259;28;20452;-82
2022/08/31 06:33:58;;;;;;;7.82;6.20;;;18.30;99.90;;;;;;5040552;28;20056;-82
2022/08/31 06:36:29;;;;;;;11.43;6.20;;;18.30;99.90;;;;;;5037063;28;20040;-82
2022/08/31 06:38:58;;;;;;;10.02;6.28;;;18.30;99.90;;;;;;5035431;28;20022;-81
2022/08/31 06:41:35;;;;;;;8.15;5.82;;;18.40;99.90;;;;;;5031248;28;20036;-82
2022/08/31 06:44:03;;;;;;;8.63;6.00;;;18.50;99.90;;;;;;5031646;28;20387;-82
2022/08/31 06:46:32;;;;;;;11.88;6.75;;;18.40;99.90;;;;;;5040000;28;20036;-80
2022/08/31 06:48:58;;;;;;;13.52;6.57;;;18.50;99.90;;;;;;5023801;28;20045;-81
2022/08/31 06:51:25;;;;;;;10.95;6.38;;;18.50;99.90;;;;;;5041348;28;20030;-81
2022/08/31 06:53:54;;;;;;;14.80;6.80;;;18.40;99.90;;;;;;5036341;28;20029;-81
2022/08/31 06:56:24;;;;;;;9.27;6.88;;;18.50;99.90;;;;;;5035806;28;20393;-82
2022/08/31 06:58:51;;;;;;;8.07;6.05;;;18.20;99.90;;;;;;5038056;28;20033;-81
2022/08/31 07:01:23;;;;;;;12.82;8.00;;;18.20;99.90;;;;;;5039004;28;20025;-81
2022/08/31 07:03:49;;;;;;;11.65;6.72;;;18.40;99.90;;;;;;5035229;28;20079;-81
2022/08/31 07:06:20;;;;;;;11.70;6.47;;;18.40;99.90;;;;;;5040825;28;20022;-81
2022/08/31 07:08:50;;;;;;;9.45;6.90;;;18.50;99.90;;;;;;5032285;28;20020;-81
2022/08/31 07:11:25;;;;;;;10.95;7.57;;;18.50;99.90;;;;;;5039363;28;20397;-81
2022/08/31 07:13:53;;;;;;;13.00;7.80;;;18.70;99.90;;;;;;5030096;28;20033;-81
2022/08/31 07:16:20;;;;;;;7.55;6.82;;;18.80;99.90;;;;;;5032398;28;20030;-81
2022/08/31 07:18:48;;;;;;;10.25;7.50;;;18.80;99.90;;;;;;5040181;28;20515;-80
2022/08/31 07:21:26;;;;;;;9.73;7.75;;;18.80;99.90;;;;;;5033438;28;20044;-80
2022/08/31 07:23:54;;;;;;;13.70;8.80;;;18.60;99.90;;;;;;5050395;28;20116;-81
2022/08/31 07:26:24;;;;;;;11.25;7.97;;;18.80;99.90;;;;;;5018938;28;20044;-80
2022/08/31 07:28:52;;;;;;;13.73;8.60;;;18.90;99.90;;;;;;5039011;28;20048;-81
2022/08/31 07:31:23;;;;;;;9.68;7.50;;;18.90;99.90;;;;;;5055905;28;20112;-80
2022/08/31 07:33:56;;;;;;;16.33;8.60;;;19.10;99.90;;;;;;5046459;28;20038;-81
2022/08/31 07:36:24;;;;;;;8.85;7.70;;;19.10;99.90;;;;;;5044850;28;20079;-80
2022/08/31 07:44:20;;;;;;;9.05;7.53;;;19.30;99.90;;;;;;5047795;28;20040;-81
2022/08/31 07:46:47;;;;;;;19.58;8.32;;;19.40;99.90;;;;;;5038142;28;20035;-83
2022/08/31 07:49:14;;;;;;;12.10;8.35;;;19.40;99.90;;;;;;5033682;28;20483;-83
2022/08/31 07:51:49;;;;;;;11.18;8.00;;;19.30;99.90;;;;;;5029358;28;20022;-82
2022/08/31 07:54:20;;;;;;;12.75;9.27;;;19.20;99.90;;;;;;5035163;28;20492;-83
2022/08/31 07:56:50;;;;;;;14.57;9.07;;;19.20;99.90;;;;;;5045620;28;20116;-83
2022/08/31 07:59:21;;;;;;;12.20;8.85;;;19.20;99.90;;;;;;5031791;28;20025;-83
2022/08/31 08:01:48;;;;;;;10.82;8.52;;;19.30;99.90;;;;;;5026644;28;20030;-82
2022/08/31 08:04:25;;;;;;;9.15;7.93;;;19.20;99.90;;;;;;5032119;28;20017;-82
2022/08/31 08:07:04;;;;;;;15.82;9.15;;;19.40;99.90;;;;;;5026959;28;20048;-82
2022/08/31 08:09:31;;;;;;;14.40;7.43;;;19.40;99.90;;;;;;5039971;28;20029;-82
2022/08/31 08:12:05;;;;;;;11.93;7.50;;;19.50;99.90;;;;;;5036801;28;20115;-82
2022/08/31 08:14:33;;;;;;;11.55;8.93;;;19.60;99.90;;;;;;5035873;28;20025;-82
2022/08/31 08:17:00;;;;;;;10.48;7.97;;;19.60;99.90;;;;;;5034271;28;20032;-82
2022/08/31 08:19:26;;;;;;;10.43;7.70;;;19.70;99.90;;;;;;5044877;28;20028;-81
2022/08/31 08:21:52;;;;;;;13.13;7.57;;;19.70;99.90;;;;;;5037391;28;20478;-83
2022/08/31 08:24:18;;;;;;;10.80;7.13;;;19.80;99.90;;;;;;5031224;28;20038;-82
2022/08/31 08:26:46;;;;;;;6.35;5.70;;;19.80;99.90;;;;;;5040224;28;20032;-81
2022/08/31 08:29:12;;;;;;;8.00;6.80;;;19.80;99.90;;;;;;5044455;28;20128;-80
2022/08/31 08:31:38;;;;;;;9.60;6.72;;;19.90;99.90;;;;;;5039459;28;20850;-81
2022/08/31 08:34:05;;;;;;;9.20;6.82;;;19.90;99.90;;;;;;5032905;28;20533;-82
2022/08/31 08:36:36;;;;;;;12.02;6.63;;;19.80;99.90;;;;;;5050758;28;20040;-81
2022/08/31 08:39:04;;;;;;;10.05;6.50;;;19.90;99.90;;;;;;5031461;28;20268;-81
2022/08/31 08:41:33;;;;;;;8.52;5.72;;;19.90;99.90;;;;;;5037922;28;20021;-81
2022/08/31 08:44:03;;;;;;;13.57;5.93;;;20.00;99.90;;;;;;5030821;28;20465;-81
2022/08/31 08:46:31;;;;;;;7.60;6.28;;;20.00;99.90;;;;;;5034826;28;20034;-81
2022/08/31 08:48:59;;;;;;;13.52;5.80;;;20.10;99.90;;;;;;5031842;28;20026;-81
2022/08/31 08:51:34;;;;;;;8.73;4.95;;;20.10;99.90;;;;;;5028742;28;20033;-81
2022/08/31 08:54:09;;;;;;;10.52;5.47;;;19.90;99.90;;;;;;5014104;28;20144;-81
2022/08/31 08:56:40;;;;;;;8.32;6.28;;;19.90;99.90;;;;;;5040762;28;20025;-81
2022/08/31 08:59:07;;;;;;;11.18;5.47;;;19.90;99.90;;;;;;5041278;28;20025;-81
2022/08/31 09:01:36;;;;;;;11.70;5.38;;;19.90;99.90;;;;;;5026317;28;20386;-81
2022/08/31 09:04:15;;;;;;;9.00;5.82;;;19.90;99.90;;;;;;5026893;28;20029;-82
2022/08/31 09:06:48;;;;;;;6.78;6.07;;;20.00;99.90;;;;;;5049045;28;20041;-81
2022/08/31 09:09:48;;;;;;;7.93;5.97;;;20.00;99.90;;;;;;5039048;28;20034;-82
2022/08/31 09:12:23;;;;;;;8.00;5.60;;;20.10;99.90;;;;;;5033228;28;20525;-81
2022/08/31 09:15:27;;;;;;;11.60;6.10;;;20.10;99.90;;;;;;5037030;28;20056;-82
2022/08/31 09:18:43;;;;;;;7.67;5.40;;;20.10;99.90;;;;;;5029725;28;20032;-82
2022/08/31 09:21:26;;;;;;;8.32;5.43;;;20.30;99.90;;;;;;4966166;28;20484;-82
2022/08/31 09:24:08;;;;;;;9.07;6.00;;;20.40;99.90;;;;;;5036194;28;20029;-82
2022/08/31 09:27:16;;;;;;;10.65;6.05;;;20.40;99.90;;;;;;5024097;28;20030;-82
2022/08/31 09:29:54;;;;;;;11.70;5.90;;;20.50;99.90;;;;;;5030199;28;20034;-82
2022/08/31 09:32:33;;;;;;;9.38;6.18;;;20.40;99.90;;;;;;5037807;28;20025;-82
2022/08/31 09:35:40;;;;;;;5.43;4.93;;;20.40;99.90;;;;;;5038549;28;20144;-82
2022/08/31 09:38:11;;;;;;;13.07;5.85;;;20.40;99.90;;;;;;5037230;28;20083;-82
2022/08/31 09:40:39;;;;;;;10.68;6.00;;;20.50;99.90;;;;;;5030581;28;20025;-82
2022/08/31 09:43:13;;;;;;;9.25;6.53;;;20.50;99.90;;;;;;5037875;28;20033;-81
2022/08/31 09:45:55;;;;;;;7.20;5.20;;;20.50;99.90;;;;;;5035024;28;20029;-81
2022/08/31 09:48:44;;;;;;;8.48;5.82;;;20.50;99.90;;;;;;5063468;28;20036;-82
2022/08/31 09:51:20;;;;;;;11.25;6.00;;;20.60;99.90;;;;;;5060092;28;20033;-82
2022/08/31 09:56:30;;;;;;;6.07;5.35;;;20.50;99.90;;;;;;5034404;28;20033;-82
2022/08/31 09:59:03;;;;;;;11.55;5.85;;;20.50;99.90;;;;;;5058611;28;20030;-82
2022/08/31 10:01:39;;;;;;;7.65;5.45;;;20.50;99.90;;;;;;5071153;28;20059;-82
2022/08/31 10:04:24;;;;;;;6.80;5.93;;;20.60;99.90;;;;;;5031440;28;20025;-82
2022/08/31 10:07:10;;;;;;;8.10;5.50;;;20.60;99.90;;;;;;5057459;28;20570;-82
2022/08/31 10:09:45;;;;;;;7.97;5.53;;;20.60;99.90;;;;;;5039163;28;20030;-82
2022/08/31 10:12:23;;;;;;;7.32;5.57;;;20.60;99.90;;;;;;5040930;28;20056;-82
2022/08/31 10:15:03;;;;;;;7.13;5.28;;;20.70;99.90;;;;;;5037292;28;20036;-82
2022/08/31 10:17:51;;;;;;;13.38;6.07;;;20.70;99.90;;;;;;5038594;28;20029;-82
2022/08/31 10:20:21;;;;;;;7.30;5.00;;;20.80;99.90;;;;;;5027129;28;20068;-82
2022/08/31 10:22:55;;;;;;;9.15;5.32;;;20.60;99.90;;;;;;5037918;28;20100;-82
2022/08/31 10:25:40;;;;;;;7.80;5.25;;;20.80;99.90;;;;;;5035356;28;20033;-82
2022/08/31 10:28:30;;;;;;;8.82;5.53;;;20.80;99.90;;;;;;5047511;28;20033;-82
2022/08/31 10:31:22;;;;;;;8.95;5.22;;;20.90;99.90;;;;;;5042412;28;20025;-82
2022/08/31 10:36:53;;;;;;;6.68;5.00;;;20.90;99.90;;;;;;5043528;28;20048;-81
2022/08/31 10:39:43;;;;;;;9.82;5.32;;;20.90;99.70;;;;;;5041018;28;20029;-81
2022/08/31 10:42:36;;;;;;;7.93;5.07;;;21.00;99.90;;;;;;5042428;28;20063;-81
2022/08/31 10:45:16;;;;;;;6.88;4.75;;;21.00;98.50;;;;;;5037077;28;20061;-82
2022/08/31 10:47:48;;;;;;;10.15;5.00;;;21.10;98.70;;;;;;5039914;28;20035;-80
2022/08/31 10:53:41;;;;;;;7.55;4.72;;;21.20;99.50;;;;;;5033758;28;20029;-80
2022/08/31 10:56:22;;;;;;;12.57;4.88;;;21.10;98.50;;;;;;5048451;28;20033;-80
2022/08/31 10:58:54;;;;;;;6.57;4.35;;;21.20;98.50;;;;;;5037881;28;20079;-80
2022/08/31 11:01:27;;;;;;;6.47;4.78;;;21.20;96.80;;;;;;5032446;28;20025;-80
2022/08/31 11:03:58;;;;;;;8.45;4.07;;;21.30;97.50;;;;;;5037839;28;20047;-79
2022/08/31 11:06:37;;;;;;;6.05;3.67;;;21.20;97.80;;;;;;5041822;28;20052;-79
2022/08/31 11:09:19;;;;;;;6.60;3.85;;;21.30;98.10;;;;;;5032582;28;20113;-80
2022/08/31 11:12:02;;;;;;;5.65;4.03;;;21.30;97.80;;;;;;5050055;28;20030;-80
2022/08/31 11:15:21;;;;;;;6.65;4.35;;;21.40;97.80;;;;;;5041524;28;20164;-80
2022/08/31 11:17:56;;;;;;;5.55;4.40;;;21.40;96.70;;;;;;5039849;28;20086;-79
2022/08/31 11:20:32;;;;;;;6.68;4.30;;;21.20;97.70;;;;;;5041342;28;20060;-80
2022/08/31 11:23:32;;;;;;;6.35;3.85;;;21.30;98.10;;;;;;5029086;28;20025;-79
2022/08/31 11:26:26;;;;;;;8.43;3.97;;;21.30;97.60;;;;;;5037704;28;20038;-79
2022/08/31 11:28:54;;;;;;;;;;;21.40;97.30;;;;;;5024033;28;20026;-80
2022/08/31 11:31:24;;;;;;;6.47;4.20;;;21.40;97.60;;;;;;5029387;28;19916;-79
2022/08/31 11:34:06;;;;;;;6.15;4.22;;;21.40;96.80;;;;;;5025545;28;20025;-79
2022/08/31 11:36:48;;;;;;;6.43;3.40;;;21.40;97.40;;;;;;5030065;28;20029;-80
2022/08/31 11:39:17;;;;;;;8.25;3.65;;;21.60;96.00;;;;;;5028673;28;20117;-79
2022/08/31 11:41:48;;;;;;;7.75;4.28;;;21.60;95.10;;;;;;5040248;28;20490;-79
2022/08/31 11:44:28;;;;;;;6.55;3.70;;;21.70;95.90;;;;;;5027364;28;20033;-81
2022/08/31 11:47:28;;;;;;;6.43;4.03;;;21.70;95.70;;;;;;5030906;28;20072;-79
2022/08/31 11:49:56;;;;;;;9.40;4.18;;;21.80;94.70;;;;;;5038984;28;20549;-78
2022/08/31 11:52:42;;;;;;;5.60;3.78;;;21.80;95.00;;;;;;5035623;28;20032;-80
2022/08/31 11:55:26;;;;;;;6.45;3.65;;;21.80;95.50;;;;;;5026555;28;20096;-79
2022/08/31 11:58:08;;;;;;;6.95;3.65;;;21.80;94.90;;;;;;5028962;28;20032;-79
2022/08/31 12:00:45;;;;;;;7.15;3.78;;;21.90;94.00;;;;;;5037243;28;20017;-79
2022/08/31 12:03:30;;;;;;;5.22;3.95;;;21.90;94.80;;;;;;5038712;28;20118;-80
2022/08/31 12:05:56;;;;;;;3.28;2.85;;;21.90;93.60;;;;;;5028507;28;20028;-79
2022/08/31 12:08:33;;;;;;;6.57;3.35;;;22.00;93.80;;;;;;5039187;28;20557;-79
2022/08/31 12:11:14;;;;;;;3.58;3.13;;;22.00;93.50;;;;;;5034499;28;20041;-79
2022/08/31 12:14:36;;;;;;;10.25;3.42;;;22.20;93.60;;;;;;5024530;28;20030;-80
2022/08/31 12:17:43;;;;;;;5.43;3.17;;;22.40;94.20;;;;;;5006166;28;20502;-79
2022/08/31 12:20:11;;;;;;;5.47;3.50;;;22.60;92.90;;;;;;4988353;28;20026;-80
2022/08/31 12:26:08;;;;;;;4.90;3.30;;;22.70;93.00;;;;;;5031044;28;20045;-79
2022/08/31 12:28:53;;;;;;;4.80;3.17;;;22.90;92.20;;;;;;5021959;28;20489;-79
2022/08/31 12:31:19;;;;;;;3.58;3.00;;;23.10;91.80;;;;;;5031251;28;20029;-79
2022/08/31 12:34:15;;;;;;;4.53;2.85;;;23.20;92.10;;;;;;5028208;28;20026;-78
2022/08/31 12:36:42;;;;;;;8.57;2.97;;;23.40;90.90;;;;;;5035794;28;20119;-79
2022/08/31 12:39:09;;;;;;;7.00;4.85;;;23.30;91.40;;;;;;5050897;28;20053;-78
2022/08/31 12:41:52;;;;;;;7.95;4.18;;;23.10;90.90;;;;;;5039478;28;20014;-79
2022/08/31 12:44:28;;;;;;;6.67;2.90;;;22.80;90.20;;;;;;5029380;28;20022;-78
2022/08/31 12:47:00;;;;;;;4.30;2.92;;;22.60;90.50;;;;;;5029560;28;20057;-79
2022/08/31 12:49:38;;;;;;;7.63;3.78;;;22.50;91.10;;;;;;5025532;28;20026;-79
2022/08/31 12:52:32;;;;;;;5.72;3.53;;;22.50;91.60;;;;;;5031400;28;20032;-78
2022/08/31 12:55:22;;;;;;;3.72;2.97;;;22.50;91.70;;;;;;5038118;28;20021;-79
2022/08/31 12:58:08;;;;;;;4.13;3.17;;;22.50;91.50;;;;;;5037125;28;20441;-79
2022/08/31 13:00:38;;;;;;;9.02;3.00;;;22.50;91.40;;;;;;5029127;28;20612;-80
2022/08/31 13:03:23;;;;;;;6.90;3.63;;;22.40;90.80;;;;;;5036361;28;20036;-80
2022/08/31 13:06:12;;;;;;;5.82;3.83;;;22.30;91.40;;;;;;5044662;28;20079;-79
2022/08/31 13:08:47;;;;;;;6.47;3.53;;;22.20;91.90;;;;;;5037011;28;20029;-79
2022/08/31 13:11:33;;;;;;;5.47;3.35;;;22.10;91.50;;;;;;5038734;28;20025;-79
2022/08/31 13:14:12;;;;;;;7.55;3.40;;;22.10;91.40;;;;;;5029322;28;20034;-79
2022/08/31 13:16:41;;;;;;;4.63;3.58;;;22.10;91.70;;;;;;5039839;28;20041;-79
2022/08/31 13:19:14;;;;;;;5.80;3.80;;;22.10;91.30;;;;;;5024699;28;20383;-78
2022/08/31 13:21:40;;;;;;;4.97;3.50;;;22.10;91.40;;;;;;5035857;28;20078;-79
2022/08/31 13:24:09;;;;;;;6.20;3.40;;;22.10;91.20;;;;;;5029778;28;20367;-79
2022/08/31 13:26:37;;;;;;;8.05;3.17;;;22.20;90.30;;;;;;5021999;28;20064;-79
2022/08/31 13:29:07;;;;;;;5.93;3.45;;;22.40;89.60;;;;;;5025371;28;20044;-78
2022/08/31 13:31:45;;;;;;;3.70;3.10;;;22.50;90.80;;;;;;5032538;28;20037;-79